Sintaluta, Canada
Current Conditions -  °F | °C
As of 7:00 PM on Monday 26 Jan 2015 (Local Time) from CYQR Reporting Station
Few Clouds Few Clouds  
Wind Chill: 23°   Ceiling: Unl
Heat Index: 30°   Visibility: 15mi
Dew Point: 30°   Wind: 8mph
Humidity: 100%   Direction: 120°ESE
Pressure: 29.87"   Gusts: NA
Location:  50.48°N, 103.43°W
Report Text: CYQR 270100Z 12007KT 15SM FEW230 M01/M01 A2987 RMK CI2 SLP142
Loading
Personal Weather Stations






























Interactive Weather Map New forecast layout! Learn more

10-Day Weather Forecast

Advertisements
Track Severe Weather on mobile